createdAt,value
2019-02-02T00:01:03.482Z,97368.66
2019-02-02T00:03:34.583Z,97358.56
2019-02-02T00:06:06.185Z,97355.05
2019-02-02T00:08:37.639Z,97363.61
2019-02-02T00:11:08.461Z,97353.69
2019-02-02T00:13:39.718Z,97363.96
2019-02-02T00:16:10.990Z,97355.74
2019-02-02T00:18:41.943Z,97356.17
2019-02-02T00:21:12.880Z,97362.68
2019-02-02T00:23:43.823Z,97362.08
2019-02-02T00:26:15.753Z,97370.52
2019-02-02T00:28:46.631Z,97365.52
2019-02-02T00:31:17.575Z,97345.28
2019-02-02T00:33:49.758Z,97320.70
2019-02-02T00:36:20.937Z,97310.50
2019-02-02T00:38:52.010Z,97325.17
2019-02-02T00:41:23.054Z,97339.56
2019-02-02T00:43:53.994Z,97328.13
2019-02-02T00:46:24.795Z,97328.05
2019-02-02T00:48:56.350Z,97347.27
2019-02-02T00:51:27.512Z,97346.92
2019-02-02T00:53:58.616Z,97349.14
2019-02-02T00:56:29.393Z,97350.38
2019-02-02T00:59:00.552Z,97347.30
2019-02-02T01:01:31.412Z,97349.29
2019-02-02T01:04:02.223Z,97355.30
2019-02-02T01:06:33.438Z,97358.83
2019-02-02T01:09:09.752Z,97353.69
2019-02-02T01:11:41.115Z,97359.09
2019-02-02T01:14:12.093Z,97368.55
2019-02-02T01:16:43.113Z,97380.30
2019-02-02T01:19:14.065Z,97376.45
2019-02-02T01:21:45.167Z,97381.24
2019-02-02T01:24:16.710Z,97398.63
2019-02-02T01:26:47.569Z,97406.25
2019-02-02T01:29:18.746Z,97398.55
2019-02-02T01:31:49.670Z,97381.81
2019-02-02T01:34:20.533Z,97372.34
2019-02-02T01:36:51.454Z,97375.72
2019-02-02T01:39:22.256Z,97377.20
2019-02-02T01:41:53.345Z,97378.20
2019-02-02T01:44:24.197Z,97374.97
2019-02-02T01:46:55.342Z,97369.37
2019-02-02T01:49:26.203Z,97364.55
2019-02-02T01:51:57.275Z,97378.63
2019-02-02T01:54:28.500Z,97396.59
2019-02-02T01:56:59.608Z,97394.14
2019-02-02T01:59:30.752Z,97402.87
2019-02-02T02:02:01.877Z,97416.81
2019-02-02T02:04:32.940Z,97403.56
2019-02-02T02:07:04.091Z,97413.70
2019-02-02T02:09:35.097Z,97407.02
2019-02-02T02:12:05.976Z,97395.05
2019-02-02T02:14:37.149Z,97381.20
2019-02-02T02:17:08.474Z,97379.69
2019-02-02T02:19:40.301Z,97378.41
2019-02-02T02:22:11.144Z,97380.57
2019-02-02T02:24:42.284Z,97381.94
2019-02-02T02:27:13.406Z,97349.64
2019-02-02T02:29:44.260Z,97348.55
2019-02-02T02:32:15.267Z,97362.68
2019-02-02T02:34:46.350Z,97382.20
2019-02-02T02:37:17.123Z,97386.06
2019-02-02T02:39:47.914Z,97383.34
2019-02-02T02:42:18.979Z,97387.66
2019-02-02T02:44:49.801Z,97394.08
2019-02-02T02:47:20.589Z,97384.83
2019-02-02T02:49:51.619Z,97375.17
2019-02-02T02:52:22.724Z,97389.50
2019-02-02T02:54:53.814Z,97391.02
2019-02-02T02:57:24.597Z,97387.75
2019-02-02T02:59:55.875Z,97390.58
2019-02-02T03:02:26.879Z,97395.05
2019-02-02T03:04:57.666Z,97394.16
2019-02-02T03:07:28.501Z,97382.61
2019-02-02T03:09:59.285Z,97378.82
2019-02-02T03:12:30.140Z,97384.16
2019-02-02T03:15:01.063Z,97390.49
2019-02-02T03:17:32.545Z,97384.89
2019-02-02T03:20:03.719Z,97373.53
2019-02-02T03:22:34.579Z,97360.11
2019-02-02T03:25:07.325Z,97360.43
2019-02-02T03:27:38.375Z,97367.90
2019-02-02T03:30:11.855Z,97367.08
2019-02-02T03:32:43.073Z,97363.00
2019-02-02T03:35:15.151Z,97357.47
2019-02-02T03:37:46.025Z,97361.80
2019-02-02T03:40:19.207Z,97369.22
2019-02-02T03:42:50.698Z,97373.97
2019-02-02T03:45:23.362Z,97385.18
2019-02-02T03:47:54.863Z,97384.33
2019-02-02T03:50:25.933Z,97375.11
2019-02-02T03:52:56.956Z,97357.13
2019-02-02T03:55:28.136Z,97356.94
2019-02-02T03:57:59.776Z,97365.06
2019-02-02T04:00:30.849Z,97375.61
2019-02-02T04:03:01.629Z,97390.05
2019-02-02T04:05:32.412Z,97390.75
2019-02-02T04:08:04.455Z,97408.84
2019-02-02T04:10:35.419Z,97433.45
2019-02-02T04:13:06.205Z,97444.52
2019-02-02T04:15:37.164Z,97450.59
2019-02-02T04:18:08.409Z,97435.03
2019-02-02T04:20:39.661Z,97441.77
2019-02-02T04:23:11.462Z,97438.45
2019-02-02T04:25:42.766Z,97436.72
2019-02-02T04:28:13.613Z,97441.28
2019-02-02T04:30:44.850Z,97429.57
2019-02-02T04:33:16.196Z,97428.44
2019-02-02T04:35:47.303Z,97418.16
2019-02-02T04:38:18.141Z,97432.49
2019-02-02T04:40:49.054Z,97425.25
2019-02-02T04:43:19.996Z,97430.94
2019-02-02T04:45:50.779Z,97428.58
2019-02-02T04:48:21.841Z,97430.41
2019-02-02T04:50:52.947Z,97434.97
2019-02-02T04:53:23.951Z,97432.52
2019-02-02T04:55:54.735Z,97435.17
2019-02-02T04:58:25.596Z,97450.03
2019-02-02T05:00:56.636Z,97455.90
2019-02-02T05:03:27.637Z,97467.55
2019-02-02T05:05:59.142Z,97462.41
2019-02-02T05:08:30.203Z,97459.75
2019-02-02T05:11:01.321Z,97458.31
2019-02-02T05:13:32.568Z,97463.60
2019-02-02T05:16:03.609Z,97466.26
2019-02-02T05:18:34.385Z,97471.98
2019-02-02T05:21:05.317Z,97453.06
2019-02-02T05:23:36.532Z,97455.90
2019-02-02T05:26:07.496Z,97452.86
2019-02-02T05:28:38.282Z,97441.09
2019-02-02T05:31:09.350Z,97451.69
2019-02-02T05:33:40.507Z,97443.23
2019-02-02T05:36:11.585Z,97442.88
2019-02-02T05:38:43.094Z,97440.11
2019-02-02T05:41:14.354Z,97444.31
2019-02-02T05:43:45.393Z,97439.91
2019-02-02T05:46:16.425Z,97452.22
2019-02-02T05:48:47.241Z,97471.13
2019-02-02T05:51:18.159Z,97469.52
2019-02-02T05:53:49.386Z,97473.44
2019-02-02T05:56:20.543Z,97488.99
2019-02-02T05:58:51.321Z,97493.52
2019-02-02T06:01:22.130Z,97508.55
2019-02-02T06:03:52.979Z,97514.05
2019-02-02T06:06:24.147Z,97516.61
2019-02-02T06:08:55.017Z,97529.11
2019-02-02T06:11:25.939Z,97529.52
2019-02-02T06:13:56.725Z,97525.66
2019-02-02T06:16:27.799Z,97522.72
2019-02-02T06:18:58.605Z,97500.67
2019-02-02T06:21:29.694Z,97502.48
2019-02-02T06:24:00.737Z,97512.50
2019-02-02T06:26:31.575Z,97526.53
2019-02-02T06:29:02.589Z,97530.59
2019-02-02T06:31:33.426Z,97543.88
2019-02-02T06:34:04.435Z,97559.77
2019-02-02T06:36:36.491Z,97564.91
2019-02-02T06:39:08.356Z,97561.67
2019-02-02T06:41:39.410Z,97563.95
2019-02-02T06:44:10.266Z,97560.40
2019-02-02T06:46:43.678Z,97557.39
2019-02-02T06:49:13.921Z,97572.25
2019-02-02T06:51:44.952Z,97583.91
2019-02-02T06:54:16.308Z,97582.77
2019-02-02T06:56:47.482Z,97592.98
2019-02-02T06:59:18.592Z,97603.94
2019-02-02T07:01:49.397Z,97608.03
2019-02-02T07:04:20.226Z,97612.94
2019-02-02T07:06:51.199Z,97610.66
2019-02-02T07:09:22.456Z,97619.66
2019-02-02T07:11:53.600Z,97615.59
2019-02-02T07:14:24.743Z,97618.08
2019-02-02T07:16:55.512Z,97619.81
2019-02-02T07:19:29.038Z,97620.34
2019-02-02T07:21:59.001Z,97629.64
2019-02-02T07:24:30.073Z,97633.17
2019-02-02T07:27:00.927Z,97629.08
2019-02-02T07:29:32.137Z,97629.38
2019-02-02T07:32:03.249Z,97635.39
2019-02-02T07:34:34.055Z,97635.50
2019-02-02T07:37:05.128Z,97640.72
2019-02-02T07:39:35.911Z,97631.37
2019-02-02T07:42:06.678Z,97644.38
2019-02-02T07:44:37.602Z,97645.25
2019-02-02T07:47:09.312Z,97632.56
2019-02-02T07:49:40.660Z,97642.59
2019-02-02T07:52:11.698Z,97652.50
2019-02-02T07:54:43.771Z,97654.97
2019-02-02T07:57:14.918Z,97657.19
2019-02-02T07:59:45.709Z,97654.86
2019-02-02T08:02:16.774Z,97662.78
2019-02-02T08:04:48.071Z,97668.39
2019-02-02T08:07:19.393Z,97669.31
2019-02-02T08:09:50.197Z,97666.75
2019-02-02T08:12:21.372Z,97672.50
2019-02-02T08:14:52.162Z,97678.67
2019-02-02T08:17:23.762Z,97679.13
2019-02-02T08:19:54.909Z,97678.92
2019-02-02T08:22:26.053Z,97679.91
2019-02-02T08:24:57.137Z,97691.16
2019-02-02T08:27:27.990Z,97688.44
2019-02-02T08:29:59.487Z,97691.45
2019-02-02T08:32:30.251Z,97687.14
2019-02-02T08:35:01.020Z,97703.63
2019-02-02T08:37:32.131Z,97708.67
2019-02-02T08:40:03.012Z,97713.30
2019-02-02T08:42:34.098Z,97716.11
2019-02-02T08:45:06.100Z,97719.09
2019-02-02T08:47:37.125Z,97731.60
2019-02-02T08:50:15.035Z,97723.16
2019-02-02T08:52:46.026Z,97727.37
2019-02-02T08:55:16.809Z,97729.53
2019-02-02T08:57:47.819Z,97727.89
2019-02-02T09:00:19.705Z,97736.02
2019-02-02T09:02:50.944Z,97733.12
2019-02-02T09:05:22.217Z,97740.75
2019-02-02T09:07:53.157Z,97739.30
2019-02-02T09:10:25.962Z,97743.18
2019-02-02T09:12:57.371Z,97741.52
2019-02-02T09:15:28.895Z,97745.13
2019-02-02T09:18:00.018Z,97752.63
2019-02-02T09:20:30.879Z,97759.27
2019-02-02T09:23:06.420Z,97760.91
2019-02-02T09:25:34.921Z,97768.48
2019-02-02T09:28:05.986Z,97775.16
2019-02-02T09:30:38.352Z,97785.77
2019-02-02T09:33:09.569Z,97794.09
2019-02-02T09:35:40.710Z,97795.54
2019-02-02T09:38:12.327Z,97799.34
2019-02-02T09:40:43.446Z,97806.28
2019-02-02T09:43:14.216Z,97804.98
2019-02-02T09:45:45.257Z,97815.80
2019-02-02T09:48:16.739Z,97814.20
2019-02-02T09:50:47.546Z,97820.87
2019-02-02T09:53:18.558Z,97822.14
2019-02-02T09:55:49.667Z,97821.89
2019-02-02T09:58:20.552Z,97818.59
2019-02-02T10:00:51.704Z,97818.50
2019-02-02T10:03:22.469Z,97814.49
2019-02-02T10:05:53.556Z,97832.00
2019-02-02T10:08:24.353Z,97832.20
2019-02-02T10:10:55.632Z,97838.29
2019-02-02T10:13:26.431Z,97843.64
2019-02-02T10:15:57.425Z,97847.97
2019-02-02T10:18:28.575Z,97849.00
2019-02-02T10:21:04.012Z,97853.54
2019-02-02T10:23:32.561Z,97850.70
2019-02-02T10:26:03.483Z,97849.47
2019-02-02T10:28:34.243Z,97852.34
2019-02-02T10:31:05.137Z,97854.56
2019-02-02T10:33:35.883Z,97856.20
2019-02-02T10:36:06.894Z,97857.28
2019-02-02T10:38:37.749Z,97857.41
2019-02-02T10:41:08.773Z,97867.30
2019-02-02T10:43:39.601Z,97866.27
2019-02-02T10:46:10.951Z,97868.80
2019-02-02T10:48:42.015Z,97870.02
2019-02-02T10:51:12.808Z,97872.66
2019-02-02T10:53:43.558Z,97875.61
2019-02-02T10:56:14.492Z,97879.83
2019-02-02T10:58:45.493Z,97883.75
2019-02-02T11:01:16.360Z,97883.02
2019-02-02T11:03:47.129Z,97882.11
2019-02-02T11:06:18.154Z,97887.17
2019-02-02T11:08:48.943Z,97886.47
2019-02-02T11:11:19.962Z,97888.11
2019-02-02T11:13:50.798Z,97886.27
2019-02-02T11:16:21.569Z,97885.91
2019-02-02T11:18:53.268Z,97889.52
2019-02-02T11:21:24.133Z,97888.09
2019-02-02T11:23:54.888Z,97889.84
2019-02-02T11:26:25.910Z,97887.82
2019-02-02T11:28:57.082Z,97886.47
2019-02-02T11:31:29.137Z,97892.62
2019-02-02T11:34:00.055Z,97895.21
2019-02-02T11:36:31.069Z,97894.75
2019-02-02T11:39:01.819Z,97896.23
2019-02-02T11:41:34.195Z,97903.87
2019-02-02T11:44:05.298Z,97903.63
2019-02-02T11:46:36.308Z,97908.41
2019-02-02T11:49:07.685Z,97911.84
2019-02-02T11:51:38.538Z,97913.73
2019-02-02T11:54:09.668Z,97926.06
2019-02-02T11:56:40.510Z,97920.50
2019-02-02T11:59:11.645Z,97922.16
2019-02-02T12:01:42.746Z,97925.56
2019-02-02T12:04:13.864Z,97925.46
2019-02-02T12:06:44.623Z,97918.91
2019-02-02T12:09:15.396Z,97929.73
2019-02-02T12:11:46.452Z,97927.86
2019-02-02T12:14:17.492Z,97929.03
2019-02-02T12:16:48.275Z,97934.98
2019-02-02T12:19:19.190Z,97949.41
2019-02-02T12:21:50.352Z,97952.57
2019-02-02T12:24:21.197Z,97957.34
2019-02-02T12:26:52.321Z,97959.77
2019-02-02T12:29:23.332Z,97958.07
2019-02-02T12:31:54.477Z,97958.19
2019-02-02T12:34:25.319Z,97954.23
2019-02-02T12:36:56.120Z,97958.94
2019-02-02T12:39:27.160Z,97953.75
2019-02-02T12:41:58.336Z,97961.48
2019-02-02T12:44:29.414Z,97969.23
2019-02-02T12:47:00.628Z,97972.36
2019-02-02T12:49:31.477Z,97970.58
2019-02-02T12:52:02.377Z,97983.13
2019-02-02T12:54:33.344Z,97984.41
2019-02-02T12:57:04.452Z,97976.94
2019-02-02T12:59:37.992Z,97975.39
2019-02-02T13:02:07.713Z,97980.16
2019-02-02T13:04:38.560Z,97972.30
2019-02-02T13:07:09.693Z,97977.80
2019-02-02T13:09:40.650Z,97981.22
2019-02-02T13:12:11.549Z,97989.13
2019-02-02T13:14:42.612Z,97986.53
2019-02-02T13:17:13.997Z,97986.17
2019-02-02T13:19:44.754Z,97992.99
2019-02-02T13:22:15.834Z,97990.19
2019-02-02T13:24:46.891Z,97994.79
2019-02-02T13:27:18.029Z,97994.55
2019-02-02T13:29:52.042Z,97996.91
2019-02-02T13:32:21.553Z,97989.95
2019-02-02T13:34:53.152Z,98000.28
2019-02-02T13:37:24.200Z,98000.70
2019-02-02T13:39:55.242Z,98004.38
2019-02-02T13:42:26.037Z,98011.25
2019-02-02T13:44:56.907Z,98017.91
2019-02-02T13:47:27.705Z,98024.55
2019-02-02T13:49:58.727Z,98025.16
2019-02-02T13:52:29.525Z,98030.45
2019-02-02T13:55:00.471Z,98024.80
2019-02-02T13:57:31.852Z,98026.28
2019-02-02T14:00:02.996Z,98028.64
2019-02-02T14:02:34.581Z,98024.97
2019-02-02T14:05:07.410Z,98029.20
2019-02-02T14:07:38.335Z,98036.94
2019-02-02T14:10:11.462Z,98033.89
2019-02-02T14:12:42.469Z,98039.67
2019-02-02T14:15:13.429Z,98046.92
2019-02-02T14:17:44.427Z,98046.45
2019-02-02T14:20:15.806Z,98049.19
2019-02-02T14:22:46.969Z,98051.34
2019-02-02T14:25:18.085Z,98055.56
2019-02-02T14:27:50.025Z,98054.75
2019-02-02T14:30:22.773Z,98064.48
2019-02-02T14:32:55.011Z,98070.24
2019-02-02T14:35:27.544Z,98072.91
2019-02-02T14:37:58.393Z,98074.20
2019-02-02T14:40:30.124Z,98077.33
2019-02-02T14:43:00.996Z,98087.31
2019-02-02T14:45:33.034Z,98087.31
2019-02-02T14:48:04.462Z,98102.27
2019-02-02T14:50:35.593Z,98106.28
2019-02-02T14:53:06.485Z,98108.11
2019-02-02T14:55:37.265Z,98111.46
2019-02-02T14:58:08.371Z,98122.32
2019-02-02T15:00:39.509Z,98126.83
2019-02-02T15:03:10.531Z,98135.72
2019-02-02T15:05:43.320Z,98135.67
2019-02-02T15:08:14.143Z,98140.30
2019-02-02T15:10:44.901Z,98141.16
2019-02-02T15:13:16.028Z,98141.59
2019-02-02T15:15:46.862Z,98153.53
2019-02-02T15:18:17.727Z,98161.13
2019-02-02T15:20:48.557Z,98167.15
2019-02-02T15:23:19.409Z,98171.17
2019-02-02T15:25:50.438Z,98167.41
2019-02-02T15:28:21.623Z,98170.70
2019-02-02T15:30:52.676Z,98169.11
2019-02-02T15:33:23.760Z,98176.03
2019-02-02T15:35:54.852Z,98181.46
2019-02-02T15:38:25.679Z,98183.42
2019-02-02T15:40:59.282Z,98186.18
2019-02-02T15:43:29.176Z,98182.89
2019-02-02T15:45:59.937Z,98184.09
2019-02-02T15:48:30.715Z,98186.52
2019-02-02T15:51:01.788Z,98185.13
2019-02-02T15:53:32.788Z,98188.91
2019-02-02T15:56:03.775Z,98184.68
2019-02-02T15:58:34.570Z,98185.39
2019-02-02T16:01:05.519Z,98192.61
2019-02-02T16:03:49.123Z,98198.86
2019-02-02T16:06:09.967Z,98205.92
2019-02-02T16:08:40.979Z,98213.20
2019-02-02T16:11:12.932Z,98209.95
2019-02-02T16:13:43.717Z,98215.47
2019-02-02T16:18:49.864Z,98229.19
2019-02-02T16:21:20.628Z,98238.14
2019-02-02T16:23:51.721Z,98236.39
2019-02-02T16:26:22.704Z,98234.67
2019-02-02T16:28:53.557Z,98247.20
2019-02-02T16:31:24.323Z,98254.36
2019-02-02T16:34:02.218Z,98256.75
2019-02-02T16:36:28.104Z,98253.95
2019-02-02T16:38:58.982Z,98263.69
2019-02-02T16:41:29.821Z,98261.36
2019-02-02T16:44:01.097Z,98273.53
2019-02-02T16:46:31.919Z,98272.84
2019-02-02T16:49:02.951Z,98276.13
2019-02-02T16:51:33.815Z,98285.15
2019-02-02T16:54:04.692Z,98277.77
2019-02-02T16:56:35.462Z,98285.98
2019-02-02T16:59:06.641Z,98288.12
2019-02-02T17:01:37.467Z,98290.45
2019-02-02T17:04:15.342Z,98292.07
2019-02-02T17:06:41.381Z,98293.73
2019-02-02T17:09:14.028Z,98297.02
2019-02-02T17:11:44.952Z,98304.02
2019-02-02T17:14:17.819Z,98316.92
2019-02-02T17:16:48.297Z,98310.38
2019-02-02T17:19:19.306Z,98309.44
2019-02-02T17:21:50.138Z,98306.16
2019-02-02T17:24:21.153Z,98308.28
2019-02-02T17:26:52.145Z,98315.51
2019-02-02T17:29:23.006Z,98321.16
2019-02-02T17:31:53.838Z,98324.87
2019-02-02T17:34:27.272Z,98339.17
2019-02-02T17:36:57.460Z,98340.80
2019-02-02T17:39:28.583Z,98341.40
2019-02-02T17:41:59.486Z,98337.53
2019-02-02T17:44:30.502Z,98344.21
2019-02-02T17:47:01.496Z,98342.80
2019-02-02T17:49:32.389Z,98343.39
2019-02-02T17:52:03.392Z,98347.95
2019-02-02T17:54:34.174Z,98351.45
2019-02-02T17:57:05.322Z,98347.36
2019-02-02T17:59:36.336Z,98348.06
2019-02-02T18:02:07.400Z,98348.66
2019-02-02T18:04:41.223Z,98346.78
2019-02-02T18:07:10.705Z,98350.97
2019-02-02T18:09:41.498Z,98354.60
2019-02-02T18:12:12.264Z,98352.14
2019-02-02T18:14:43.276Z,98355.77
2019-02-02T18:17:14.277Z,98357.41
2019-02-02T18:19:45.561Z,98353.69
2019-02-02T18:22:17.958Z,98346.30
2019-02-02T18:24:48.992Z,98348.64
2019-02-02T18:27:20.022Z,98347.22
2019-02-02T18:29:50.877Z,98346.86
2019-02-02T18:32:21.641Z,98349.44
2019-02-02T18:34:52.737Z,98362.08
2019-02-02T18:37:23.732Z,98360.88
2019-02-02T18:39:55.098Z,98371.91
2019-02-02T18:42:26.232Z,98378.30
2019-02-02T18:44:57.245Z,98370.30
2019-02-02T18:47:28.009Z,98371.28
2019-02-02T18:49:59.212Z,98376.22
2019-02-02T18:52:30.607Z,98383.91
2019-02-02T18:55:01.489Z,98392.53
2019-02-02T18:57:32.524Z,98403.42
2019-02-02T19:00:06.091Z,98405.48
2019-02-02T19:02:38.187Z,98407.80
2019-02-02T19:05:09.603Z,98412.08
2019-02-02T19:07:40.703Z,98416.36
2019-02-02T19:10:14.782Z,98420.42
2019-02-02T19:12:45.635Z,98413.84
2019-02-02T19:15:17.153Z,98417.91
2019-02-02T19:17:48.587Z,98426.69
2019-02-02T19:20:20.587Z,98435.88
2019-02-02T19:22:52.168Z,98452.73
2019-02-02T19:25:23.676Z,98461.95
2019-02-02T19:27:55.154Z,98467.34
2019-02-02T19:30:28.136Z,98474.81
2019-02-02T19:32:59.794Z,98480.30
2019-02-02T19:35:31.050Z,98486.26
2019-02-02T19:38:01.995Z,98487.05
2019-02-02T19:40:32.860Z,98489.77
2019-02-02T19:43:03.702Z,98487.66
2019-02-02T19:45:34.500Z,98490.88
2019-02-02T19:48:05.674Z,98501.89
2019-02-02T19:50:36.452Z,98504.12
2019-02-02T19:53:07.417Z,98498.66
2019-02-02T19:55:38.203Z,98499.70
2019-02-02T19:58:09.044Z,98507.42
2019-02-02T20:00:39.917Z,98514.03
2019-02-02T20:03:10.693Z,98522.28
2019-02-02T20:05:41.551Z,98532.18
2019-02-02T20:08:12.342Z,98536.03
2019-02-02T20:10:43.459Z,98535.58
2019-02-02T20:13:14.496Z,98545.65
2019-02-02T20:15:46.225Z,98552.41
2019-02-02T20:18:17.540Z,98558.99
2019-02-02T20:20:48.602Z,98566.62
2019-02-02T20:23:19.615Z,98568.39
2019-02-02T20:25:50.455Z,98569.80
2019-02-02T20:28:21.397Z,98574.73
2019-02-02T20:30:52.404Z,98580.21
2019-02-02T20:33:23.461Z,98579.53
2019-02-02T20:35:54.629Z,98582.84
2019-02-02T20:38:25.409Z,98595.03
2019-02-02T20:40:56.253Z,98598.45
2019-02-02T20:43:27.330Z,98595.36
2019-02-02T20:45:58.593Z,98602.38
2019-02-02T20:48:30.318Z,98607.67
2019-02-02T20:51:02.017Z,98612.39
2019-02-02T20:53:33.122Z,98623.38
2019-02-02T20:56:08.052Z,98630.55
2019-02-02T20:58:39.095Z,98636.41
2019-02-02T21:01:10.181Z,98646.70
2019-02-02T21:03:41.305Z,98655.57
2019-02-02T21:06:12.091Z,98658.39
2019-02-02T21:08:43.158Z,98662.22
2019-02-02T21:11:14.181Z,98666.64
2019-02-02T21:13:45.457Z,98668.30
2019-02-02T21:16:16.424Z,98674.73
2019-02-02T21:18:48.149Z,98678.16
2019-02-02T21:21:19.009Z,98681.56
2019-02-02T21:23:50.034Z,98682.60
2019-02-02T21:26:21.072Z,98688.09
2019-02-02T21:28:52.116Z,98684.13
2019-02-02T21:31:22.982Z,98692.68
2019-02-02T21:33:53.990Z,98694.43
2019-02-02T21:36:24.749Z,98697.83
2019-02-02T21:38:55.771Z,98694.30
2019-02-02T21:41:26.541Z,98692.47
2019-02-02T21:43:57.615Z,98691.42
2019-02-02T21:46:28.387Z,98693.08
2019-02-02T21:48:59.566Z,98692.62
2019-02-02T21:51:30.381Z,98692.05
2019-02-02T21:54:01.512Z,98691.81
2019-02-02T21:56:32.605Z,98688.32
2019-02-02T21:59:04.102Z,98692.40
2019-02-02T22:01:35.325Z,98695.31
2019-02-02T22:04:07.003Z,98701.19
2019-02-02T22:06:37.996Z,98703.25
2019-02-02T22:09:09.031Z,98702.42
2019-02-02T22:11:40.384Z,98703.16
2019-02-02T22:14:11.901Z,98706.66
2019-02-02T22:16:43.140Z,98713.00
2019-02-02T22:19:13.924Z,98723.39
2019-02-02T22:21:44.952Z,98730.41
2019-02-02T22:24:15.818Z,98727.43
2019-02-02T22:26:47.156Z,98723.33
2019-02-02T22:29:18.254Z,98730.29
2019-02-02T22:31:49.028Z,98726.16
2019-02-02T22:34:19.878Z,98725.20
2019-02-02T22:36:51.071Z,98723.05
2019-02-02T22:39:22.176Z,98723.88
2019-02-02T22:41:52.938Z,98730.66
2019-02-02T22:44:23.958Z,98736.39
2019-02-02T22:46:55.129Z,98733.14
2019-02-02T22:49:26.480Z,98737.34
2019-02-02T22:51:59.899Z,98744.17
2019-02-02T22:54:30.360Z,98747.42
2019-02-02T22:57:01.205Z,98751.74
2019-02-02T22:59:32.487Z,98756.89
2019-02-02T23:02:09.694Z,98756.09
2019-02-02T23:05:15.565Z,98763.81
2019-02-02T23:08:44.738Z,98765.48
2019-02-02T23:11:41.480Z,98767.63
2019-02-02T23:14:48.254Z,98783.90
2019-02-02T23:17:19.541Z,98785.70
2019-02-02T23:19:50.606Z,98788.70
2019-02-02T23:22:22.664Z,98796.64
2019-02-02T23:24:53.448Z,98803.28
2019-02-02T23:27:24.233Z,98808.84
2019-02-02T23:29:55.266Z,98807.77
2019-02-02T23:32:26.270Z,98809.09
2019-02-02T23:34:57.609Z,98818.36
2019-02-02T23:37:28.522Z,98832.92
2019-02-02T23:40:00.352Z,98832.89
2019-02-02T23:42:31.162Z,98836.84
2019-02-02T23:45:02.198Z,98839.73
2019-02-02T23:47:34.338Z,98845.30
2019-02-02T23:50:05.757Z,98850.45
2019-02-02T23:52:36.521Z,98854.84
2019-02-02T23:55:07.874Z,98866.51
2019-02-02T23:57:39.145Z,98872.11
